sensor_id;sensor_type;location;lat;lon;timestamp;pressure;altitude;pressure_sealevel;temperature;humidity
70248;BME280;57641;51.416;5.506;2022-10-16T00:00:57;101121.78;;;18.04;60.70
70248;BME280;57641;51.416;5.506;2022-10-16T00:03:23;101119.56;;;18.08;60.82
70248;BME280;57641;51.416;5.506;2022-10-16T00:05:48;101125.13;;;18.06;60.71
70248;BME280;57641;51.416;5.506;2022-10-16T00:08:13;101127.19;;;18.04;60.91
70248;BME280;57641;51.416;5.506;2022-10-16T00:10:39;101128.84;;;18.05;60.62
70248;BME280;57641;51.416;5.506;2022-10-16T00:13:06;101122.25;;;18.08;60.75
70248;BME280;57641;51.416;5.506;2022-10-16T00:15:36;101118.50;;;18.09;60.23
70248;BME280;57641;51.416;5.506;2022-10-16T00:18:03;101121.19;;;18.09;60.83
70248;BME280;57641;51.416;5.506;2022-10-16T00:20:29;101131.16;;;18.08;60.67
70248;BME280;57641;51.416;5.506;2022-10-16T00:22:56;101130.72;;;18.05;60.77
70248;BME280;57641;51.416;5.506;2022-10-16T00:25:22;101121.59;;;18.06;60.77
70248;BME280;57641;51.416;5.506;2022-10-16T00:27:48;101115.19;;;18.07;60.60
70248;BME280;57641;51.416;5.506;2022-10-16T00:30:13;101121.59;;;18.06;60.42
70248;BME280;57641;51.416;5.506;2022-10-16T00:32:39;101115.97;;;18.01;60.45
70248;BME280;57641;51.416;5.506;2022-10-16T00:35:05;101114.09;;;18.01;60.23
70248;BME280;57641;51.416;5.506;2022-10-16T00:37:31;101117.63;;;18.02;60.25
70248;BME280;57641;51.416;5.506;2022-10-16T00:39:56;101124.63;;;17.96;60.30
70248;BME280;57641;51.416;5.506;2022-10-16T00:42:22;101130.41;;;17.93;60.28
70248;BME280;57641;51.416;5.506;2022-10-16T00:44:53;101138.13;;;17.96;60.35
70248;BME280;57641;51.416;5.506;2022-10-16T00:47:31;101138.31;;;17.95;59.86
70248;BME280;57641;51.416;5.506;2022-10-16T00:50:02;101136.38;;;17.89;59.96
70248;BME280;57641;51.416;5.506;2022-10-16T00:52:30;101145.50;;;17.88;59.80
70248;BME280;57641;51.416;5.506;2022-10-16T00:54:57;101139.84;;;17.83;59.94
70248;BME280;57641;51.416;5.506;2022-10-16T00:57:23;101129.28;;;17.81;59.76
70248;BME280;57641;51.416;5.506;2022-10-16T00:59:49;101133.00;;;17.80;59.79
70248;BME280;57641;51.416;5.506;2022-10-16T01:02:19;101134.22;;;17.78;59.96
70248;BME280;57641;51.416;5.506;2022-10-16T01:04:52;101135.44;;;17.75;59.66
70248;BME280;57641;51.416;5.506;2022-10-16T01:10:26;101126.38;;;17.61;60.15
70248;BME280;57641;51.416;5.506;2022-10-16T01:12:59;101122.09;;;17.52;60.48
70248;BME280;57641;51.416;5.506;2022-10-16T01:23:34;101121.41;;;17.44;60.74
70248;BME280;57641;51.416;5.506;2022-10-16T01:28:56;101126.97;;;17.42;61.03
70248;BME280;57641;51.416;5.506;2022-10-16T01:31:27;101125.78;;;17.45;60.67
70248;BME280;57641;51.416;5.506;2022-10-16T01:34:00;101127.06;;;17.49;60.59
70248;BME280;57641;51.416;5.506;2022-10-16T01:36:40;101127.25;;;17.47;60.03
70248;BME280;57641;51.416;5.506;2022-10-16T01:39:09;101130.25;;;17.38;60.57
70248;BME280;57641;51.416;5.506;2022-10-16T01:41:39;101132.28;;;17.36;60.46
70248;BME280;57641;51.416;5.506;2022-10-16T01:46:38;101142.72;;;17.39;60.53
70248;BME280;57641;51.416;5.506;2022-10-16T01:49:05;101140.84;;;17.39;60.52
70248;BME280;57641;51.416;5.506;2022-10-16T01:51:32;101133.78;;;17.38;60.74
70248;BME280;57641;51.416;5.506;2022-10-16T01:54:00;101140.84;;;17.39;60.91
70248;BME280;57641;51.416;5.506;2022-10-16T01:56:28;101129.84;;;17.41;61.31
70248;BME280;57641;51.416;5.506;2022-10-16T01:59:01;101129.75;;;17.49;61.20
70248;BME280;57641;51.416;5.506;2022-10-16T02:01:31;101133.06;;;17.51;61.36
70248;BME280;57641;51.416;5.506;2022-10-16T02:04:03;101133.66;;;17.46;61.44
70248;BME280;57641;51.416;5.506;2022-10-16T02:06:30;101141.41;;;17.56;61.37
70248;BME280;57641;51.416;5.506;2022-10-16T02:08:56;101136.88;;;17.56;61.53
70248;BME280;57641;51.416;5.506;2022-10-16T02:11:22;101144.63;;;17.59;61.38
70248;BME280;57641;51.416;5.506;2022-10-16T02:14:01;101144.41;;;17.61;61.24
70248;BME280;57641;51.416;5.506;2022-10-16T02:16:40;101135.00;;;17.57;61.29
70248;BME280;57641;51.416;5.506;2022-10-16T02:19:08;101138.47;;;17.51;61.26
70248;BME280;57641;51.416;5.506;2022-10-16T02:21:48;101133.72;;;17.53;61.77
70248;BME280;57641;51.416;5.506;2022-10-16T02:29:50;101131.72;;;17.40;61.48
70248;BME280;57641;51.416;5.506;2022-10-16T02:32:20;101128.47;;;17.45;61.66
70248;BME280;57641;51.416;5.506;2022-10-16T02:34:49;101126.22;;;17.48;61.86
70248;BME280;57641;51.416;5.506;2022-10-16T02:37:16;101126.66;;;17.52;61.40
70248;BME280;57641;51.416;5.506;2022-10-16T02:39:43;101141.63;;;17.54;61.19
70248;BME280;57641;51.416;5.506;2022-10-16T02:42:13;101134.38;;;17.55;61.18
70248;BME280;57641;51.416;5.506;2022-10-16T02:44:40;101136.88;;;17.56;61.06
70248;BME280;57641;51.416;5.506;2022-10-16T02:47:06;101131.03;;;17.53;61.29
70248;BME280;57641;51.416;5.506;2022-10-16T02:49:31;101136.69;;;17.58;61.25
70248;BME280;57641;51.416;5.506;2022-10-16T02:51:57;101134.81;;;17.58;60.96
70248;BME280;57641;51.416;5.506;2022-10-16T02:54:22;101140.22;;;17.58;60.88
70248;BME280;57641;51.416;5.506;2022-10-16T02:56:49;101131.28;;;17.58;60.78
70248;BME280;57641;51.416;5.506;2022-10-16T02:59:14;101135.41;;;17.54;60.76
70248;BME280;57641;51.416;5.506;2022-10-16T03:01:40;101129.19;;;17.53;61.08
70248;BME280;57641;51.416;5.506;2022-10-16T03:04:05;101133.72;;;17.53;60.79
70248;BME280;57641;51.416;5.506;2022-10-16T03:06:30;101144.34;;;17.54;61.33
70248;BME280;57641;51.416;5.506;2022-10-16T03:08:56;101144.50;;;17.53;61.49
70248;BME280;57641;51.416;5.506;2022-10-16T03:11:21;101146.81;;;17.56;61.21
70248;BME280;57641;51.416;5.506;2022-10-16T03:13:47;101154.72;;;17.57;60.97
70248;BME280;57641;51.416;5.506;2022-10-16T03:16:12;101152.03;;;17.57;60.96
70248;BME280;57641;51.416;5.506;2022-10-16T03:18:38;101161.34;;;17.55;60.85
70248;BME280;57641;51.416;5.506;2022-10-16T03:21:03;101174.16;;;17.53;60.56
70248;BME280;57641;51.416;5.506;2022-10-16T03:23:28;101172.97;;;17.55;60.76
70248;BME280;57641;51.416;5.506;2022-10-16T03:25:54;101167.56;;;17.55;60.70
70248;BME280;57641;51.416;5.506;2022-10-16T03:28:20;101164.66;;;17.57;60.79
70248;BME280;57641;51.416;5.506;2022-10-16T03:30:45;101171.66;;;17.51;61.31
70248;BME280;57641;51.416;5.506;2022-10-16T03:33:10;101171.88;;;17.50;61.46
70248;BME280;57641;51.416;5.506;2022-10-16T03:35:36;101164.81;;;17.49;61.45
70248;BME280;57641;51.416;5.506;2022-10-16T03:38:02;101166.75;;;17.55;61.56
70248;BME280;57641;51.416;5.506;2022-10-16T03:40:27;101165.69;;;17.56;61.47
70248;BME280;57641;51.416;5.506;2022-10-16T03:42:53;101176.22;;;17.51;61.56
70248;BME280;57641;51.416;5.506;2022-10-16T03:45:22;101182.44;;;17.51;61.77
70248;BME280;57641;51.416;5.506;2022-10-16T03:47:47;101173.72;;;17.49;61.85
70248;BME280;57641;51.416;5.506;2022-10-16T03:50:13;101177.81;;;17.45;61.67
70248;BME280;57641;51.416;5.506;2022-10-16T03:52:38;101184.44;;;17.43;62.14
70248;BME280;57641;51.416;5.506;2022-10-16T03:55:04;101189.63;;;17.44;62.44
70248;BME280;57641;51.416;5.506;2022-10-16T03:57:30;101189.81;;;17.43;62.27
70248;BME280;57641;51.416;5.506;2022-10-16T03:59:55;101193.16;;;17.45;62.76
70248;BME280;57641;51.416;5.506;2022-10-16T04:02:21;101190.91;;;17.48;62.52
70248;BME280;57641;51.416;5.506;2022-10-16T04:04:46;101187.22;;;17.49;62.67
70248;BME280;57641;51.416;5.506;2022-10-16T04:07:11;101181.16;;;17.47;62.81
70248;BME280;57641;51.416;5.506;2022-10-16T04:09:37;101184.50;;;17.49;62.52
70248;BME280;57641;51.416;5.506;2022-10-16T04:12:02;101193.88;;;17.53;62.48
70248;BME280;57641;51.416;5.506;2022-10-16T04:14:28;101192.78;;;17.48;62.46
70248;BME280;57641;51.416;5.506;2022-10-16T04:16:54;101194.81;;;17.46;62.82
70248;BME280;57641;51.416;5.506;2022-10-16T04:19:19;101197.06;;;17.42;63.08
70248;BME280;57641;51.416;5.506;2022-10-16T04:21:45;101195.78;;;17.38;63.10
70248;BME280;57641;51.416;5.506;2022-10-16T04:24:10;101202.72;;;17.47;62.94
70248;BME280;57641;51.416;5.506;2022-10-16T04:26:37;101204.22;;;17.50;63.13
70248;BME280;57641;51.416;5.506;2022-10-16T04:29:05;101196.56;;;17.53;63.05
70248;BME280;57641;51.416;5.506;2022-10-16T04:31:32;101195.56;;;17.54;62.90
70248;BME280;57641;51.416;5.506;2022-10-16T04:33:58;101192.59;;;17.49;63.02
70248;BME280;57641;51.416;5.506;2022-10-16T04:36:23;101200.13;;;17.54;62.97
70248;BME280;57641;51.416;5.506;2022-10-16T04:38:49;101194.31;;;17.57;62.63
70248;BME280;57641;51.416;5.506;2022-10-16T04:41:14;101198.69;;;17.58;62.84
70248;BME280;57641;51.416;5.506;2022-10-16T04:43:39;101206.63;;;17.59;62.85
70248;BME280;57641;51.416;5.506;2022-10-16T04:46:05;101216.41;;;17.60;62.89
70248;BME280;57641;51.416;5.506;2022-10-16T04:48:31;101219.44;;;17.57;62.93
70248;BME280;57641;51.416;5.506;2022-10-16T04:50:57;101217.97;;;17.55;63.28
70248;BME280;57641;51.416;5.506;2022-10-16T04:53:22;101217.56;;;17.58;63.21
70248;BME280;57641;51.416;5.506;2022-10-16T04:55:48;101224.19;;;17.55;63.24
70248;BME280;57641;51.416;5.506;2022-10-16T04:58:14;101227.91;;;17.54;62.98
70248;BME280;57641;51.416;5.506;2022-10-16T05:00:39;101229.69;;;17.47;63.59
70248;BME280;57641;51.416;5.506;2022-10-16T05:03:05;101227.91;;;17.54;63.66
70248;BME280;57641;51.416;5.506;2022-10-16T05:05:34;101239.53;;;17.55;63.46
70248;BME280;57641;51.416;5.506;2022-10-16T05:08:00;101225.84;;;17.56;63.24
70248;BME280;57641;51.416;5.506;2022-10-16T05:10:25;101234.13;;;17.55;63.33
70248;BME280;57641;51.416;5.506;2022-10-16T05:12:51;101239.31;;;17.56;63.21
70248;BME280;57641;51.416;5.506;2022-10-16T05:15:17;101244.19;;;17.61;63.11
70248;BME280;57641;51.416;5.506;2022-10-16T05:17:44;101258.84;;;17.58;63.23
70248;BME280;57641;51.416;5.506;2022-10-16T05:20:10;101266.09;;;17.58;63.34
70248;BME280;57641;51.416;5.506;2022-10-16T05:22:35;101261.94;;;17.55;63.31
70248;BME280;57641;51.416;5.506;2022-10-16T05:25:01;101265.44;;;17.56;63.17
70248;BME280;57641;51.416;5.506;2022-10-16T05:27:26;101254.88;;;17.54;63.17
70248;BME280;57641;51.416;5.506;2022-10-16T05:29:52;101265.44;;;17.56;63.28
70248;BME280;57641;51.416;5.506;2022-10-16T05:32:18;101262.25;;;17.60;63.64
70248;BME280;57641;51.416;5.506;2022-10-16T05:34:44;101268.53;;;17.53;63.56
70248;BME280;57641;51.416;5.506;2022-10-16T05:37:10;101274.19;;;17.58;63.51
70248;BME280;57641;51.416;5.506;2022-10-16T05:39:37;101271.69;;;17.56;63.70
70248;BME280;57641;51.416;5.506;2022-10-16T05:42:03;101286.50;;;17.60;63.57
70248;BME280;57641;51.416;5.506;2022-10-16T05:44:29;101278.56;;;17.59;63.11
70248;BME280;57641;51.416;5.506;2022-10-16T05:46:54;101294.75;;;17.59;62.96
70248;BME280;57641;51.416;5.506;2022-10-16T05:49:20;101299.03;;;17.53;63.36
70248;BME280;57641;51.416;5.506;2022-10-16T05:51:45;101306.28;;;17.53;63.44
70248;BME280;57641;51.416;5.506;2022-10-16T05:54:11;101301.91;;;17.52;63.05
70248;BME280;57641;51.416;5.506;2022-10-16T05:56:36;101306.38;;;17.45;63.46
70248;BME280;57641;51.416;5.506;2022-10-16T05:59:03;101306.56;;;17.43;63.25
70248;BME280;57641;51.416;5.506;2022-10-16T06:01:29;101311.56;;;17.46;63.61
70248;BME280;57641;51.416;5.506;2022-10-16T06:03:56;101308.53;;;17.49;63.60
70248;BME280;57641;51.416;5.506;2022-10-16T06:06:24;101320.31;;;17.48;63.45
70248;BME280;57641;51.416;5.506;2022-10-16T06:08:54;101315.78;;;17.49;63.79
70248;BME280;57641;51.416;5.506;2022-10-16T06:11:22;101334.91;;;17.54;63.41
70248;BME280;57641;51.416;5.506;2022-10-16T06:13:53;101332.22;;;17.54;63.55
70248;BME280;57641;51.416;5.506;2022-10-16T06:16:19;101338.19;;;17.49;63.42
70248;BME280;57641;51.416;5.506;2022-10-16T06:18:45;101337.97;;;17.51;63.08
70248;BME280;57641;51.416;5.506;2022-10-16T06:21:17;101344.03;;;17.53;63.63
70248;BME280;57641;51.416;5.506;2022-10-16T06:23:43;101342.72;;;17.49;63.43
70248;BME280;57641;51.416;5.506;2022-10-16T06:26:20;101357.59;;;17.45;63.76
70248;BME280;57641;51.416;5.506;2022-10-16T06:28:46;101343.47;;;17.43;63.59
70248;BME280;57641;51.416;5.506;2022-10-16T06:31:12;101351.72;;;17.41;63.93
70248;BME280;57641;51.416;5.506;2022-10-16T06:33:39;101355.44;;;17.40;63.78
70248;BME280;57641;51.416;5.506;2022-10-16T06:36:10;101356.50;;;17.39;63.86
70248;BME280;57641;51.416;5.506;2022-10-16T06:38:37;101354.16;;;17.36;63.84
70248;BME280;57641;51.416;5.506;2022-10-16T06:41:04;101365.09;;;17.35;63.93
70248;BME280;57641;51.416;5.506;2022-10-16T06:43:30;101375.53;;;17.38;63.88
70248;BME280;57641;51.416;5.506;2022-10-16T06:46:01;101384.91;;;17.42;64.24
70248;BME280;57641;51.416;5.506;2022-10-16T06:48:28;101375.72;;;17.36;63.92
70248;BME280;57641;51.416;5.506;2022-10-16T06:53:20;101387.63;;;17.42;63.95
70248;BME280;57641;51.416;5.506;2022-10-16T06:55:49;101395.44;;;17.51;64.03
70248;BME280;57641;51.416;5.506;2022-10-16T06:58:14;101398.31;;;17.50;63.87
70248;BME280;57641;51.416;5.506;2022-10-16T07:00:40;101408.16;;;17.57;63.50
70248;BME280;57641;51.416;5.506;2022-10-16T07:03:05;101406.16;;;17.59;63.30
70248;BME280;57641;51.416;5.506;2022-10-16T07:05:31;101408.34;;;17.56;63.26
70248;BME280;57641;51.416;5.506;2022-10-16T07:07:56;101413.94;;;17.54;63.69
70248;BME280;57641;51.416;5.506;2022-10-16T07:10:21;101419.97;;;17.56;63.94
70248;BME280;57641;51.416;5.506;2022-10-16T07:12:49;101425.56;;;17.55;64.04
70248;BME280;57641;51.416;5.506;2022-10-16T07:15:15;101426.34;;;17.63;64.12
70248;BME280;57641;51.416;5.506;2022-10-16T07:17:40;101431.19;;;17.68;64.04
70248;BME280;57641;51.416;5.506;2022-10-16T07:20:06;101434.88;;;17.67;63.96
70248;BME280;57641;51.416;5.506;2022-10-16T07:22:32;101441.22;;;17.74;63.76
70248;BME280;57641;51.416;5.506;2022-10-16T07:24:58;101442.06;;;17.75;63.75
70248;BME280;57641;51.416;5.506;2022-10-16T07:27:23;101438.25;;;17.84;63.80
70248;BME280;57641;51.416;5.506;2022-10-16T07:29:49;101451.38;;;17.87;63.39
70248;BME280;57641;51.416;5.506;2022-10-16T07:32:15;101451.84;;;17.90;63.65
70248;BME280;57641;51.416;5.506;2022-10-16T07:34:40;101457.06;;;17.92;63.32
70248;BME280;57641;51.416;5.506;2022-10-16T07:37:05;101458.41;;;17.88;64.10
70248;BME280;57641;51.416;5.506;2022-10-16T07:39:31;101469.59;;;17.99;63.87
70248;BME280;57641;51.416;5.506;2022-10-16T07:41:56;101471.38;;;18.07;63.74
70248;BME280;57641;51.416;5.506;2022-10-16T07:44:22;101477.66;;;18.14;63.67
70248;BME280;57641;51.416;5.506;2022-10-16T07:46:47;101481.22;;;18.14;63.27
70248;BME280;57641;51.416;5.506;2022-10-16T07:49:13;101484.00;;;18.21;63.30
70248;BME280;57641;51.416;5.506;2022-10-16T07:51:38;101490.41;;;18.20;63.28
70248;BME280;57641;51.416;5.506;2022-10-16T07:54:04;101491.44;;;18.19;63.28
70248;BME280;57641;51.416;5.506;2022-10-16T07:56:31;101497.78;;;18.26;63.28
70248;BME280;57641;51.416;5.506;2022-10-16T07:58:57;101493.88;;;18.29;63.20
70248;BME280;57641;51.416;5.506;2022-10-16T08:01:23;101513.94;;;18.41;63.00
70248;BME280;57641;51.416;5.506;2022-10-16T08:03:50;101515.53;;;18.35;63.12
70248;BME280;57641;51.416;5.506;2022-10-16T08:06:21;101516.88;;;18.54;62.73
70248;BME280;57641;51.416;5.506;2022-10-16T08:08:47;101525.94;;;18.53;62.32
70248;BME280;57641;51.416;5.506;2022-10-16T08:11:13;101531.00;;;18.56;62.70
70248;BME280;57641;51.416;5.506;2022-10-16T08:13:40;101521.47;;;18.45;62.77
70248;BME280;57641;51.416;5.506;2022-10-16T08:16:06;101536.94;;;18.51;62.61
70248;BME280;57641;51.416;5.506;2022-10-16T08:18:37;101533.59;;;18.64;62.29
70248;BME280;57641;51.416;5.506;2022-10-16T08:21:04;101534.06;;;18.68;61.74
70248;BME280;57641;51.416;5.506;2022-10-16T08:23:30;101537.69;;;18.75;62.19
70248;BME280;57641;51.416;5.506;2022-10-16T08:26:01;101543.16;;;18.81;61.60
70248;BME280;57641;51.416;5.506;2022-10-16T08:28:27;101543.44;;;18.86;61.45
70248;BME280;57641;51.416;5.506;2022-10-16T08:30:53;101550.66;;;19.01;61.51
70248;BME280;57641;51.416;5.506;2022-10-16T08:33:18;101537.78;;;19.03;60.66
70248;BME280;57641;51.416;5.506;2022-10-16T08:35:53;101545.38;;;18.92;60.57
70248;BME280;57641;51.416;5.506;2022-10-16T08:38:18;101542.16;;;19.04;60.44
70248;BME280;57641;51.416;5.506;2022-10-16T08:40:44;101549.06;;;19.06;60.20
70248;BME280;57641;51.416;5.506;2022-10-16T08:45:50;101568.31;;;19.18;60.38
70248;BME280;57641;51.416;5.506;2022-10-16T08:50:52;101569.41;;;19.23;60.14
70248;BME280;57641;51.416;5.506;2022-10-16T08:53:24;101570.69;;;19.27;60.33
70248;BME280;57641;51.416;5.506;2022-10-16T08:55:52;101574.50;;;19.33;59.83
70248;BME280;57641;51.416;5.506;2022-10-16T08:58:21;101579.50;;;19.36;60.07
70248;BME280;57641;51.416;5.506;2022-10-16T09:00:55;101579.06;;;19.32;59.66
70248;BME280;57641;51.416;5.506;2022-10-16T09:06:00;101579.56;;;19.42;59.83
70248;BME280;57641;51.416;5.506;2022-10-16T09:11:21;101583.56;;;19.25;59.26
70248;BME280;57641;51.416;5.506;2022-10-16T09:14:00;101587.69;;;19.42;59.50
70248;BME280;57641;51.416;5.506;2022-10-16T09:16:35;101594.78;;;19.44;59.16
70248;BME280;57641;51.416;5.506;2022-10-16T09:19:16;101600.06;;;19.52;58.93
70248;BME280;57641;51.416;5.506;2022-10-16T09:21:46;101598.69;;;19.56;58.59
70248;BME280;57641;51.416;5.506;2022-10-16T09:24:21;101601.06;;;19.65;57.85
70248;BME280;57641;51.416;5.506;2022-10-16T09:26:49;101606.53;;;19.72;57.52
70248;BME280;57641;51.416;5.506;2022-10-16T09:29:19;101607.47;;;19.86;57.21
70248;BME280;57641;51.416;5.506;2022-10-16T09:31:47;101606.50;;;19.93;57.42
70248;BME280;57641;51.416;5.506;2022-10-16T09:34:30;101611.81;;;20.08;57.20
70248;BME280;57641;51.416;5.506;2022-10-16T09:36:58;101613.03;;;20.05;57.10
70248;BME280;57641;51.416;5.506;2022-10-16T09:39:25;101609.97;;;20.15;57.03
70248;BME280;57641;51.416;5.506;2022-10-16T09:41:51;101610.28;;;20.27;56.46
70248;BME280;57641;51.416;5.506;2022-10-16T09:46:45;101611.66;;;20.44;56.47
70248;BME280;57641;51.416;5.506;2022-10-16T09:49:25;101609.75;;;20.38;56.20
70248;BME280;57641;51.416;5.506;2022-10-16T09:52:02;101610.66;;;20.45;55.65
70248;BME280;57641;51.416;5.506;2022-10-16T09:54:28;101612.50;;;20.44;56.06
70248;BME280;57641;51.416;5.506;2022-10-16T09:57:05;101607.69;;;20.40;54.82
70248;BME280;57641;51.416;5.506;2022-10-16T09:59:31;101609.50;;;20.33;54.40
70248;BME280;57641;51.416;5.506;2022-10-16T10:02:02;101612.28;;;20.39;54.80
70248;BME280;57641;51.416;5.506;2022-10-16T10:04:39;101613.41;;;20.51;55.16
70248;BME280;57641;51.416;5.506;2022-10-16T10:07:07;101617.28;;;20.42;53.62
70248;BME280;57641;51.416;5.506;2022-10-16T10:09:44;101615.66;;;20.48;54.00
70248;BME280;57641;51.416;5.506;2022-10-16T10:12:21;101621.84;;;20.42;53.79
70248;BME280;57641;51.416;5.506;2022-10-16T10:14:54;101630.41;;;20.39;53.32
70248;BME280;57641;51.416;5.506;2022-10-16T10:17:26;101627.97;;;20.50;54.08
70248;BME280;57641;51.416;5.506;2022-10-16T10:19:56;101625.66;;;20.47;53.96
70248;BME280;57641;51.416;5.506;2022-10-16T10:36:17;101645.84;;;20.45;54.04
70248;BME280;57641;51.416;5.506;2022-10-16T10:38:51;101643.25;;;20.64;54.60
70248;BME280;57641;51.416;5.506;2022-10-16T10:41:47;101637.88;;;20.71;52.72
70248;BME280;57641;51.416;5.506;2022-10-16T10:47:38;101647.81;;;20.98;52.51
70248;BME280;57641;51.416;5.506;2022-10-16T10:50:34;101651.78;;;21.02;52.24
70248;BME280;57641;51.416;5.506;2022-10-16T10:53:31;101654.13;;;21.12;51.50
70248;BME280;57641;51.416;5.506;2022-10-16T11:01:16;101653.94;;;21.14;51.58
70248;BME280;57641;51.416;5.506;2022-10-16T11:06:24;101660.75;;;21.03;50.62
70248;BME280;57641;51.416;5.506;2022-10-16T11:08:55;101657.38;;;20.88;50.77
70248;BME280;57641;51.416;5.506;2022-10-16T11:11:34;101661.16;;;20.93;51.17
70248;BME280;57641;51.416;5.506;2022-10-16T11:14:06;101655.53;;;21.01;51.31
70248;BME280;57641;51.416;5.506;2022-10-16T11:16:44;101659.31;;;21.07;50.83
70248;BME280;57641;51.416;5.506;2022-10-16T11:22:00;101657.50;;;21.21;51.55
70248;BME280;57641;51.416;5.506;2022-10-16T11:24:42;101653.59;;;21.36;50.52
70248;BME280;57641;51.416;5.506;2022-10-16T11:27:15;101660.53;;;21.45;50.63
70248;BME280;57641;51.416;5.506;2022-10-16T11:30:03;101663.47;;;21.57;50.17
70248;BME280;57641;51.416;5.506;2022-10-16T11:32:56;101657.03;;;21.71;49.31
70248;BME280;57641;51.416;5.506;2022-10-16T11:35:41;101658.91;;;21.77;48.10
70248;BME280;57641;51.416;5.506;2022-10-16T11:39:07;101658.91;;;21.71;48.93
70248;BME280;57641;51.416;5.506;2022-10-16T11:41:15;101660.81;;;21.83;48.85
70248;BME280;57641;51.416;5.506;2022-10-16T11:46:35;101655.59;;;22.02;48.05
70248;BME280;57641;51.416;5.506;2022-10-16T11:49:15;101663.97;;;22.13;48.72
70248;BME280;57641;51.416;5.506;2022-10-16T11:57:13;101662.31;;;22.25;47.04
70248;BME280;57641;51.416;5.506;2022-10-16T12:08:12;101664.81;;;22.20;48.37
70248;BME280;57641;51.416;5.506;2022-10-16T12:10:41;101663.75;;;22.21;48.09
70248;BME280;57641;51.416;5.506;2022-10-16T12:13:35;101657.91;;;22.24;48.21
70248;BME280;57641;51.416;5.506;2022-10-16T12:18:44;101675.44;;;22.28;48.44
70248;BME280;57641;51.416;5.506;2022-10-16T12:21:12;101671.06;;;22.27;46.50
70248;BME280;57641;51.416;5.506;2022-10-16T12:23:50;101673.78;;;22.34;47.49
70248;BME280;57641;51.416;5.506;2022-10-16T12:26:45;101679.22;;;22.41;45.93
70248;BME280;57641;51.416;5.506;2022-10-16T12:29:53;101673.34;;;22.37;46.27
70248;BME280;57641;51.416;5.506;2022-10-16T12:32:40;101667.09;;;22.17;46.34
70248;BME280;57641;51.416;5.506;2022-10-16T12:35:20;101669.63;;;22.18;45.86
70248;BME280;57641;51.416;5.506;2022-10-16T12:37:52;101680.69;;;22.17;46.38
70248;BME280;57641;51.416;5.506;2022-10-16T12:40:32;101670.22;;;22.27;47.35
70248;BME280;57641;51.416;5.506;2022-10-16T12:43:56;101671.69;;;22.29;47.82
70248;BME280;57641;51.416;5.506;2022-10-16T12:46:01;101665.22;;;22.30;47.48
70248;BME280;57641;51.416;5.506;2022-10-16T12:48:29;101662.28;;;22.39;47.35
70248;BME280;57641;51.416;5.506;2022-10-16T12:50:56;101663.31;;;22.44;46.80
70248;BME280;57641;51.416;5.506;2022-10-16T12:53:26;101673.34;;;22.50;46.83
70248;BME280;57641;51.416;5.506;2022-10-16T12:56:20;101668.53;;;22.52;46.97
70248;BME280;57641;51.416;5.506;2022-10-16T12:58:59;101663.75;;;22.41;46.90
70248;BME280;57641;51.416;5.506;2022-10-16T13:14:10;101652.88;;;22.35;48.34
70248;BME280;57641;51.416;5.506;2022-10-16T13:28:37;101673.16;;;22.32;48.30
70248;BME280;57641;51.416;5.506;2022-10-16T13:31:28;101673.78;;;22.34;47.91
70248;BME280;57641;51.416;5.506;2022-10-16T13:33:57;101680.66;;;22.37;48.11
70248;BME280;57641;51.416;5.506;2022-10-16T13:36:29;101678.19;;;22.35;47.44
70248;BME280;57641;51.416;5.506;2022-10-16T13:39:15;101685.69;;;22.40;47.74
70248;BME280;57641;51.416;5.506;2022-10-16T13:41:45;101689.44;;;22.32;48.09
70248;BME280;57641;51.416;5.506;2022-10-16T13:44:18;101696.97;;;22.43;48.09
70248;BME280;57641;51.416;5.506;2022-10-16T13:46:45;101695.91;;;22.44;48.04
70248;BME280;57641;51.416;5.506;2022-10-16T13:49:17;101694.25;;;22.50;48.01
70248;BME280;57641;51.416;5.506;2022-10-16T13:51:59;101694.66;;;22.53;47.59
70248;BME280;57641;51.416;5.506;2022-10-16T13:54:26;101693.59;;;22.54;47.90
70248;BME280;57641;51.416;5.506;2022-10-16T13:56:54;101691.09;;;22.53;48.14
70248;BME280;57641;51.416;5.506;2022-10-16T13:59:32;101698.00;;;22.55;48.11
70248;BME280;57641;51.416;5.506;2022-10-16T14:01:59;101700.09;;;22.53;48.40
70248;BME280;57641;51.416;5.506;2022-10-16T14:04:32;101694.03;;;22.51;48.71
70248;BME280;57641;51.416;5.506;2022-10-16T14:06:58;101695.72;;;22.52;48.35
70248;BME280;57641;51.416;5.506;2022-10-16T14:09:26;101695.47;;;22.54;48.93
70248;BME280;57641;51.416;5.506;2022-10-16T14:14:22;101699.25;;;22.53;49.32
70248;BME280;57641;51.416;5.506;2022-10-16T14:16:48;101703.03;;;22.52;49.81
70248;BME280;57641;51.416;5.506;2022-10-16T14:19:24;101708.25;;;22.53;50.39
70248;BME280;57641;51.416;5.506;2022-10-16T14:21:53;101688.81;;;22.50;50.77
70248;BME280;57641;51.416;5.506;2022-10-16T14:26:53;101685.69;;;22.46;51.77
70248;BME280;57641;51.416;5.506;2022-10-16T14:29:23;101676.47;;;22.47;51.92
70248;BME280;57641;51.416;5.506;2022-10-16T14:32:03;101688.16;;;22.48;52.16
70248;BME280;57641;51.416;5.506;2022-10-16T14:34:34;101691.13;;;22.46;52.41
70248;BME280;57641;51.416;5.506;2022-10-16T14:37:08;101673.97;;;22.46;52.45
70248;BME280;57641;51.416;5.506;2022-10-16T14:39:35;101673.97;;;22.46;52.43
70248;BME280;57641;51.416;5.506;2022-10-16T14:42:01;101674.38;;;22.49;52.34
70248;BME280;57641;51.416;5.506;2022-10-16T14:44:39;101673.75;;;22.54;52.66
70248;BME280;57641;51.416;5.506;2022-10-16T14:47:13;101679.19;;;22.60;52.59
70248;BME280;57641;51.416;5.506;2022-10-16T14:49:41;101676.84;;;22.64;52.28
70248;BME280;57641;51.416;5.506;2022-10-16T14:52:11;101684.00;;;22.71;51.19
70248;BME280;57641;51.416;5.506;2022-10-16T14:54:37;101676.00;;;22.70;51.08
70248;BME280;57641;51.416;5.506;2022-10-16T14:57:04;101681.28;;;22.71;51.49